Time;durP1;ratioP1;P1;durP2;ratioP2;P2;SDS_P1;SDS_P2;PMS_P1;PMS_P2;Temp;Humidity;BMP_temperature;BMP_pressure;BME280_temperature;BME280_humidity;BME280_pressure;Samples;Min_cycle;Max_cycle;Signal;HPM_P1;HPM_P2
2022/07/03 00:01:43;;;;;;;15.77;7.80;;;;;;;25.00;64.42;100168.91;5060204;28;20041;-73
2022/07/03 00:04:09;;;;;;;15.77;7.65;;;;;;;25.16;63.88;100173.50;5057954;28;20052;-73
2022/07/03 00:06:35;;;;;;;14.85;7.43;;;;;;;25.16;63.08;100170.78;5057132;28;20040;-73
2022/07/03 00:09:03;;;;;;;10.80;7.47;;;;;;;25.26;62.17;100170.13;5057751;28;20381;-73
2022/07/03 00:11:29;;;;;;;11.27;6.80;;;;;;;25.35;61.91;100164.03;5057935;28;20345;-73
2022/07/03 00:13:54;;;;;;;14.05;7.88;;;;;;;25.35;61.48;100160.50;5056649;28;20033;-72
2022/07/03 00:16:20;;;;;;;14.95;7.40;;;;;;;25.33;61.35;100166.16;5058524;28;20029;-73
2022/07/03 00:18:46;;;;;;;14.05;7.32;;;;;;;25.40;61.13;100160.56;5059384;28;20032;-73
2022/07/03 00:21:15;;;;;;;13.63;7.55;;;;;;;25.45;60.71;100158.75;5056539;28;20032;-73
2022/07/03 00:23:46;;;;;;;13.75;7.15;;;;;;;25.46;60.57;100156.84;5055790;28;20047;-73
2022/07/03 00:26:13;;;;;;;12.57;6.85;;;;;;;25.35;60.58;100160.50;5059055;28;20044;-73
2022/07/03 00:28:41;;;;;;;12.40;6.75;;;;;;;25.40;60.71;100164.09;5060700;28;20041;-73
2022/07/03 00:31:07;;;;;;;10.85;7.07;;;;;;;25.40;60.57;100164.09;5059786;28;20036;-72
2022/07/03 00:33:34;;;;;;;11.93;7.03;;;;;;;25.43;60.42;100160.06;5059345;28;20112;-73
2022/07/03 00:36:00;;;;;;;11.95;7.72;;;;;;;25.43;59.96;100149.22;5059852;28;20261;-73
2022/07/03 00:38:26;;;;;;;8.48;6.57;;;;;;;25.44;60.00;100145.44;5060378;28;20021;-73
2022/07/03 00:40:52;;;;;;;11.10;7.45;;;;;;;25.43;59.95;100133.78;5061185;28;20054;-73
2022/07/03 00:43:17;;;;;;;10.57;8.05;;;;;;;25.41;60.18;100129.69;5061883;28;20368;-73
2022/07/03 00:45:48;;;;;;;13.80;7.10;;;;;;;25.39;60.16;100143.47;5063292;28;20334;-72
2022/07/03 00:48:15;;;;;;;10.60;7.38;;;;;;;25.39;59.95;100138.06;5061566;28;20035;-72
2022/07/03 00:50:46;;;;;;;15.45;8.25;;;;;;;25.44;59.62;100130.00;5061053;28;20036;-72
2022/07/03 00:53:13;;;;;;;11.85;7.30;;;;;;;25.44;59.46;100131.88;5061213;28;20032;-73
2022/07/03 00:55:43;;;;;;;17.73;7.38;;;;;;;25.40;59.16;100128.03;5060423;28;20037;-73
2022/07/03 00:58:09;;;;;;;10.98;7.43;;;;;;;25.39;59.75;100126.41;5061657;28;20029;-73
2022/07/03 01:00:40;;;;;;;15.38;7.78;;;;;;;25.42;59.50;100128.59;5061974;28;20044;-72
2022/07/03 01:03:09;;;;;;;14.07;8.02;;;;;;;25.42;59.50;100132.13;5064048;28;20280;-73
2022/07/03 01:05:49;;;;;;;11.75;7.60;;;;;;;25.40;59.57;100128.84;5062448;28;20266;-73
2022/07/03 01:08:43;;;;;;;13.18;8.07;;;;;;;25.39;59.23;100124.50;5060629;28;20075;-73
2022/07/03 01:11:28;;;;;;;16.10;8.00;;;;;;;25.31;59.38;100119.50;5056967;28;20029;-72
2022/07/03 01:14:20;;;;;;;13.98;8.10;;;;;;;25.09;60.56;100132.19;5057462;28;20043;-73
2022/07/03 01:17:06;;;;;;;12.77;9.00;;;;;;;24.92;61.85;100132.13;5058554;28;20033;-73
2022/07/03 01:19:48;;;;;;;13.70;8.57;;;;;;;24.90;62.17;100122.63;5059925;28;20302;-73
2022/07/03 01:22:34;;;;;;;12.30;8.63;;;;;;;24.86;62.36;100127.72;5059453;28;20388;-73
2022/07/03 01:25:20;;;;;;;12.80;8.00;;;;;;;24.78;62.43;100120.81;5060331;28;20079;-73
2022/07/03 01:28:00;;;;;;;13.23;7.90;;;;;;;24.66;62.99;100117.34;5057365;28;20384;-73
2022/07/03 01:30:32;;;;;;;13.32;8.52;;;;;;;24.60;63.02;100126.47;5058999;28;20037;-73
2022/07/03 01:33:26;;;;;;;12.30;7.95;;;;;;;24.26;64.31;100128.25;5062748;28;20029;-73
2022/07/03 01:36:01;;;;;;;13.38;8.55;;;;;;;24.23;64.61;100120.63;5061689;28;20039;-73
2022/07/03 01:38:32;;;;;;;12.20;8.52;;;;;;;24.11;65.00;100120.69;5059311;28;20214;-72
2022/07/03 01:41:00;;;;;;;9.32;8.13;;;;;;;23.68;66.97;100114.91;5058238;28;20025;-72
2022/07/03 01:43:31;;;;;;;12.02;8.55;;;;;;;23.79;66.78;100117.56;5060703;28;20332;-72
2022/07/03 01:45:58;;;;;;;14.43;8.20;;;;;;;23.89;66.93;100127.78;5062116;28;20041;-73
2022/07/03 01:48:25;;;;;;;20.50;9.07;;;;;;;23.53;68.30;100124.31;5059479;28;20025;-72
2022/07/03 01:50:52;;;;;;;13.60;9.07;;;;;;;23.58;68.80;100129.03;5057278;28;20017;-72
2022/07/03 01:53:19;;;;;;;14.18;9.70;;;;;;;23.68;69.07;100125.72;5060300;28;20045;-72
2022/07/03 01:55:48;;;;;;;13.38;9.25;;;;;;;23.80;68.89;100127.34;5062078;28;20234;-73
2022/07/03 01:58:14;;;;;;;13.10;8.85;;;;;;;24.05;67.80;100120.81;5059940;28;20037;-72
2022/07/03 02:00:50;;;;;;;10.57;8.77;;;;;;;24.13;67.22;100123.97;5040197;28;20331;-73
2022/07/03 02:03:31;;;;;;;13.23;8.82;;;;;;;24.04;67.50;100125.41;5059851;28;20032;-73
2022/07/03 02:06:08;;;;;;;17.35;9.00;;;;;;;24.11;67.46;100126.09;5059599;28;20033;-73
2022/07/03 02:08:48;;;;;;;15.40;8.75;;;;;;;23.85;67.99;100130.13;5059782;28;20040;-73
2022/07/03 02:11:19;;;;;;;12.82;8.90;;;;;;;23.84;67.49;100120.38;5058696;28;20084;-73
2022/07/03 02:14:14;;;;;;;12.10;8.93;;;;;;;23.83;67.72;100129.56;5059144;28;20269;-73
2022/07/03 02:16:52;;;;;;;12.25;8.85;;;;;;;23.71;68.32;100130.66;5056274;28;20032;-73
2022/07/03 02:19:21;;;;;;;11.35;9.43;;;;;;;23.76;68.26;100131.56;5056230;28;20096;-73
2022/07/03 02:21:50;;;;;;;15.75;9.70;;;;;;;23.82;67.93;100133.31;5059378;28;20085;-73
2022/07/03 02:24:20;;;;;;;13.57;9.25;;;;;;;23.72;68.28;100132.28;5058218;28;20338;-73
2022/07/03 02:27:05;;;;;;;13.52;9.15;;;;;;;23.73;67.87;100123.13;5055314;28;20033;-73
2022/07/03 02:29:41;;;;;;;14.55;9.70;;;;;;;23.66;67.45;100134.06;5056324;28;20356;-73
2022/07/03 02:32:13;;;;;;;14.95;9.55;;;;;;;23.69;68.36;100133.59;5055382;28;20085;-73
2022/07/03 02:34:45;;;;;;;11.85;9.05;;;;;;;23.86;67.77;100130.97;5059274;28;20044;-73
2022/07/03 02:37:17;;;;;;;14.18;8.82;;;;;;;23.91;67.57;100127.53;5056560;28;20219;-73
2022/07/03 02:39:54;;;;;;;11.77;9.32;;;;;;;23.88;68.06;100142.38;5056631;28;20111;-73
2022/07/03 02:42:29;;;;;;;15.82;9.98;;;;;;;23.83;68.33;100132.25;5056003;28;20349;-72
2022/07/03 02:44:59;;;;;;;14.68;9.38;;;;;;;23.94;68.41;100136.03;5060713;28;20327;-72
2022/07/03 02:47:37;;;;;;;19.85;9.55;;;;;;;24.09;67.72;100138.22;5061171;28;20109;-72
2022/07/03 02:50:05;;;;;;;11.65;9.30;;;;;;;24.04;68.37;100141.63;5057646;28;20040;-73
2022/07/03 02:52:40;;;;;;;16.15;9.88;;;;;;;23.99;68.55;100141.53;5058608;28;20262;-73
2022/07/03 02:55:20;;;;;;;14.38;10.23;;;;;;;23.82;69.30;100132.50;5059315;28;20327;-73
2022/07/03 02:58:02;;;;;;;17.35;9.65;;;;;;;23.88;69.33;100139.66;5059568;28;20037;-72
2022/07/03 03:00:33;;;;;;;12.68;9.48;;;;;;;23.94;68.98;100129.78;5060213;28;20105;-73
2022/07/03 03:03:01;;;;;;;9.95;8.68;;;;;;;23.88;69.36;100137.78;5061581;28;20218;-72
2022/07/03 03:05:37;;;;;;;12.73;9.27;;;;;;;23.93;69.36;100139.78;5058969;28;20028;-72
2022/07/03 03:08:15;;;;;;;13.52;9.40;;;;;;;23.95;69.43;100134.97;5056850;28;20025;-72
2022/07/03 03:10:43;;;;;;;13.55;9.00;;;;;;;24.06;68.90;100139.50;5055238;28;20258;-73
2022/07/03 03:13:11;;;;;;;14.82;8.95;;;;;;;24.05;68.83;100139.75;5040612;28;20044;-73
2022/07/03 03:15:41;;;;;;;14.32;8.77;;;;;;;24.05;68.94;100132.47;5051144;28;20033;-72
2022/07/03 03:18:10;;;;;;;12.15;9.10;;;;;;;24.03;69.10;100131.88;5054814;28;20391;-72
2022/07/03 03:20:38;;;;;;;15.10;8.45;;;;;;;24.03;68.87;100126.47;5057841;28;20110;-73
2022/07/03 03:23:31;;;;;;;13.77;9.77;;;;;;;24.11;68.71;100131.50;5060971;28;20043;-73
2022/07/03 03:25:58;;;;;;;17.65;9.40;;;;;;;24.08;68.83;100131.97;5053403;28;20040;-73
2022/07/03 03:28:24;;;;;;;17.88;10.00;;;;;;;24.00;69.18;100132.38;5059712;28;20033;-73
2022/07/03 03:30:51;;;;;;;17.02;9.88;;;;;;;23.79;70.30;100132.97;5060190;28;20313;-72
2022/07/03 03:33:18;;;;;;;15.70;9.27;;;;;;;23.87;70.02;100133.44;5057719;28;20037;-73
2022/07/03 03:35:44;;;;;;;16.15;9.52;;;;;;;23.82;70.41;100141.44;5056956;28;20214;-72
2022/07/03 03:38:11;;;;;;;12.30;9.60;;;;;;;23.78;70.65;100139.44;5060587;28;20032;-72
2022/07/03 03:40:36;;;;;;;17.08;9.73;;;;;;;23.84;70.50;100138.50;5059282;28;20063;-72
2022/07/03 03:43:02;;;;;;;11.73;9.55;;;;;;;23.94;70.06;100143.31;5060946;28;20303;-73
2022/07/03 03:45:28;;;;;;;14.38;9.27;;;;;;;23.92;70.02;100146.22;5059344;28;20049;-73
2022/07/03 03:47:54;;;;;;;12.32;9.65;;;;;;;24.00;70.21;100142.38;5057871;28;20040;-73
2022/07/03 03:50:20;;;;;;;16.40;9.50;;;;;;;23.98;70.45;100142.59;5057790;28;20044;-73
2022/07/03 03:52:47;;;;;;;14.45;9.60;;;;;;;24.12;70.03;100146.66;5060603;28;20323;-73
2022/07/03 03:55:12;;;;;;;13.27;9.88;;;;;;;24.01;70.78;100139.41;5058051;28;20029;-72
2022/07/03 03:57:37;;;;;;;13.18;8.80;;;;;;;24.03;70.90;100134.59;5058146;28;20373;-73
2022/07/03 04:00:05;;;;;;;12.77;9.25;;;;;;;24.11;71.00;100138.78;5057202;28;20338;-73
2022/07/03 04:02:30;;;;;;;11.77;9.20;;;;;;;24.16;70.97;100130.78;5060307;28;20037;-73
2022/07/03 04:04:56;;;;;;;12.90;9.38;;;;;;;24.19;71.07;100138.41;5062309;28;20094;-73
2022/07/03 04:07:21;;;;;;;16.20;9.93;;;;;;;24.27;70.57;100132.63;5061862;28;20021;-73
2022/07/03 04:09:47;;;;;;;12.68;9.98;;;;;;;24.26;71.08;100135.56;5062853;28;20041;-73
2022/07/03 04:12:12;;;;;;;18.45;9.35;;;;;;;24.38;70.45;100137.19;5064122;28;20074;-73
2022/07/03 04:14:38;;;;;;;13.82;10.45;;;;;;;24.31;70.42;100122.97;5063423;28;20045;-73
2022/07/03 04:17:04;;;;;;;11.50;9.00;;;;;;;24.44;70.59;100144.31;5062874;28;20071;-73
2022/07/03 04:19:30;;;;;;;17.50;10.35;;;;;;;24.62;70.32;100148.69;5065090;28;20079;-73
2022/07/03 04:21:56;;;;;;;15.45;9.38;;;;;;;24.69;69.59;100106.03;5065193;28;20025;-73
2022/07/03 04:24:21;;;;;;;16.92;9.85;;;;;;;25.05;68.42;100122.91;5065227;28;20033;-73
2022/07/03 04:26:47;;;;;;;16.65;10.27;;;;;;;25.48;66.96;100141.16;5064706;28;20024;-73
2022/07/03 04:29:13;;;;;;;16.10;9.90;;;;;;;25.50;66.71;100140.91;5064676;28;20037;-73
2022/07/03 04:31:38;;;;;;;17.80;9.80;;;;;;;25.65;66.75;100141.97;5064988;28;20270;-73
2022/07/03 04:34:04;;;;;;;14.27;9.73;;;;;;;25.72;66.21;100137.16;5064866;28;20322;-73
2022/07/03 04:36:29;;;;;;;14.82;10.27;;;;;;;25.86;66.23;100145.75;5064832;28;20068;-73
2022/07/03 04:38:55;;;;;;;15.07;10.02;;;;;;;26.12;65.45;100148.78;5063652;28;20025;-73
2022/07/03 04:41:21;;;;;;;15.23;10.70;;;;;;;26.03;65.78;100140.28;5064722;28;20033;-73
2022/07/03 04:43:46;;;;;;;13.95;10.15;;;;;;;26.25;64.57;100137.53;5064953;28;20033;-72
2022/07/03 04:46:12;;;;;;;17.17;10.00;;;;;;;26.26;64.44;100139.19;5064430;28;20033;-73
2022/07/03 04:48:37;;;;;;;12.00;9.77;;;;;;;26.31;64.26;100141.94;5064924;28;20154;-73
2022/07/03 04:51:03;;;;;;;12.93;9.77;;;;;;;26.32;63.82;100144.44;5063165;28;20025;-73
2022/07/03 04:53:29;;;;;;;14.27;9.95;;;;;;;26.64;62.94;100149.09;5063550;28;20112;-73
2022/07/03 04:55:54;;;;;;;15.77;9.88;;;;;;;26.60;62.42;100139.81;5064045;28;20028;-73
2022/07/03 04:58:20;;;;;;;13.48;9.90;;;;;;;26.76;62.05;100138.88;5064290;28;20372;-73
2022/07/03 05:00:45;;;;;;;12.40;10.55;;;;;;;27.01;61.42;100144.53;5064136;28;20057;-72
2022/07/03 05:03:12;;;;;;;21.98;10.15;;;;;;;26.98;61.30;100117.88;5064382;28;20039;-73
2022/07/03 05:05:37;;;;;;;11.75;9.57;;;;;;;27.44;60.30;100144.56;5064354;28;20032;-73
2022/07/03 05:08:03;;;;;;;14.80;9.63;;;;;;;27.47;59.88;100139.44;5064270;28;20032;-73
2022/07/03 05:10:29;;;;;;;15.48;10.35;;;;;;;27.72;59.71;100141.50;5061269;28;20052;-73
2022/07/03 05:12:54;;;;;;;15.00;9.68;;;;;;;27.86;58.35;100142.63;5060046;28;20037;-72
2022/07/03 05:15:20;;;;;;;12.30;9.50;;;;;;;28.11;57.43;100144.66;5059425;28;20047;-73
2022/07/03 05:17:46;;;;;;;13.27;9.23;;;;;;;28.12;56.56;100142.75;5059476;28;20274;-73
2022/07/03 05:20:24;;;;;;;14.63;8.73;;;;;;;28.19;56.51;100138.69;5060212;28;20063;-73
2022/07/03 05:22:53;;;;;;;14.07;8.77;;;;;;;28.09;55.72;100132.38;5059342;28;20195;-73
2022/07/03 05:25:19;;;;;;;11.18;8.00;;;;;;;28.15;55.29;100140.31;5059075;28;20245;-73
2022/07/03 05:27:45;;;;;;;11.50;8.13;;;;;;;28.35;54.97;100144.22;5060072;28;20033;-73
2022/07/03 05:30:11;;;;;;;14.05;7.90;;;;;;;28.47;53.99;100142.88;5062920;28;20044;-73
2022/07/03 05:32:37;;;;;;;12.38;8.27;;;;;;;28.55;53.20;100136.06;5061787;28;20337;-73
2022/07/03 05:35:03;;;;;;;12.65;8.20;;;;;;;28.82;52.28;100136.63;5060761;28;20049;-73
2022/07/03 05:37:29;;;;;;;10.50;7.60;;;;;;;28.80;52.57;100137.97;5060413;28;20047;-73
2022/07/03 05:39:55;;;;;;;9.85;7.10;;;;;;;28.96;51.56;100136.91;5062341;28;20037;-73
2022/07/03 05:42:21;;;;;;;11.65;7.30;;;;;;;29.04;51.63;100146.44;5061634;28;20024;-73
2022/07/03 05:44:46;;;;;;;9.85;7.50;;;;;;;29.18;50.60;100147.56;5059259;28;20086;-73
2022/07/03 05:47:12;;;;;;;10.68;7.53;;;;;;;29.01;50.22;100145.09;5059257;28;20350;-73
2022/07/03 05:49:37;;;;;;;8.90;7.32;;;;;;;29.03;50.87;100150.28;5060258;28;20352;-73
2022/07/03 05:52:03;;;;;;;8.25;7.03;;;;;;;29.25;50.29;100142.63;5058964;28;20100;-73
2022/07/03 05:54:29;;;;;;;9.50;7.00;;;;;;;29.40;49.89;100139.06;5060129;28;20099;-73
2022/07/03 05:56:55;;;;;;;13.57;7.50;;;;;;;29.49;49.61;100138.25;5058080;28;20127;-73
2022/07/03 05:59:20;;;;;;;12.63;7.60;;;;;;;29.63;48.78;100127.56;5059240;28;20052;-73
2022/07/03 06:01:46;;;;;;;9.98;6.63;;;;;;;29.68;48.58;100143.91;5059385;28;20060;-73
2022/07/03 06:04:11;;;;;;;13.10;6.78;;;;;;;29.63;48.83;100135.75;5058763;28;20318;-73
2022/07/03 06:06:37;;;;;;;10.23;6.60;;;;;;;29.68;48.37;100124.81;5041117;28;20028;-72
2022/07/03 06:09:02;;;;;;;11.85;7.30;;;;;;;29.85;47.23;100133.47;5059598;28;20045;-73
2022/07/03 06:11:28;;;;;;;8.52;7.40;;;;;;;29.79;47.76;100128.31;5061794;28;20263;-73
2022/07/03 06:13:54;;;;;;;9.07;7.13;;;;;;;29.89;48.98;100139.19;5042738;28;20037;-73
2022/07/03 06:16:19;;;;;;;10.25;6.88;;;;;;;30.25;47.20;100125.41;5057833;28;20021;-73
2022/07/03 06:18:45;;;;;;;10.65;7.03;;;;;;;30.59;46.47;100136.41;5061892;28;20048;-73
2022/07/03 06:21:10;;;;;;;8.52;6.88;;;;;;;30.62;46.40;100131.19;5060645;28;20024;-73
2022/07/03 06:23:36;;;;;;;11.85;7.50;;;;;;;30.86;45.68;100133.16;5062991;28;20199;-73
2022/07/03 06:26:01;;;;;;;9.13;6.70;;;;;;;31.00;45.44;100132.22;5061320;28;20254;-73
2022/07/03 06:28:27;;;;;;;11.48;6.22;;;;;;;31.18;44.60;100121.69;5040405;28;20025;-73
2022/07/03 06:30:52;;;;;;;9.27;6.75;;;;;;;31.31;44.24;100124.59;5058555;28;20036;-73
2022/07/03 06:33:18;;;;;;;13.00;6.82;;;;;;;31.19;44.62;100129.59;5059124;28;20051;-73
2022/07/03 06:35:44;;;;;;;12.50;6.82;;;;;;;31.01;45.03;100122.91;5057983;28;20326;-73
2022/07/03 06:38:10;;;;;;;11.48;6.72;;;;;;;31.05;44.62;100117.69;5059150;28;20237;-73
2022/07/03 06:40:35;;;;;;;9.73;6.88;;;;;;;31.18;44.54;100118.94;5057828;28;20032;-73
2022/07/03 06:43:01;;;;;;;13.73;6.40;;;;;;;31.50;43.36;100115.63;5058036;28;20055;-73
2022/07/03 06:45:26;;;;;;;12.82;7.88;;;;;;;31.33;44.37;100111.44;5059255;28;20032;-73
2022/07/03 06:47:52;;;;;;;7.65;6.63;;;;;;;31.76;42.81;100122.44;5057858;28;20040;-73
2022/07/03 06:50:18;;;;;;;9.02;6.30;;;;;;;31.75;42.87;100107.13;5059096;28;20285;-73
2022/07/03 06:52:43;;;;;;;11.55;6.82;;;;;;;31.97;42.07;100112.84;5057695;28;20029;-73
2022/07/03 06:55:09;;;;;;;9.70;6.07;;;;;;;32.21;41.61;100110.06;5060406;28;20330;-73
2022/07/03 06:57:34;;;;;;;12.35;6.45;;;;;;;32.44;40.98;100102.91;5060779;28;20025;-73
2022/07/03 07:00:00;;;;;;;10.23;6.82;;;;;;;32.59;40.09;100099.09;5058384;28;20033;-73
2022/07/03 07:02:25;;;;;;;8.60;6.20;;;;;;;32.57;40.67;100099.41;5057888;28;20032;-73
2022/07/03 07:04:51;;;;;;;9.38;6.53;;;;;;;32.35;39.81;100096.47;5058863;28;20098;-73
2022/07/03 07:07:16;;;;;;;7.60;6.22;;;;;;;32.26;40.27;100103.75;5057920;28;20049;-73
2022/07/03 07:09:42;;;;;;;11.85;6.97;;;;;;;32.65;40.54;100109.69;5061029;28;20314;-73
2022/07/03 07:12:08;;;;;;;7.82;6.53;;;;;;;32.92;39.15;100102.69;5059683;28;20044;-73
2022/07/03 07:14:33;;;;;;;8.20;6.28;;;;;;;32.94;39.89;100105.94;5058193;28;20048;-73
2022/07/03 07:17:00;;;;;;;6.25;5.65;;;;;;;32.99;38.75;100089.38;5058086;28;20044;-73
2022/07/03 07:19:26;;;;;;;8.70;6.95;;;;;;;33.07;39.82;100098.84;5060721;28;20044;-73
2022/07/03 07:21:51;;;;;;;13.32;6.38;;;;;;;33.43;38.14;100097.09;5041945;28;20037;-73
2022/07/03 07:24:17;;;;;;;7.97;5.80;;;;;;;33.27;37.73;100096.53;5061045;28;20257;-73
2022/07/03 07:26:42;;;;;;;5.97;5.40;;;;;;;33.32;36.72;100092.94;5057786;28;20341;-73
2022/07/03 07:29:08;;;;;;;8.18;6.22;;;;;;;33.44;37.69;100092.44;5058376;28;20043;-73
2022/07/03 07:31:34;;;;;;;8.23;6.20;;;;;;;33.57;36.54;100089.69;5057211;28;20029;-73
2022/07/03 07:33:59;;;;;;;13.23;6.25;;;;;;;33.30;37.95;100097.91;5058483;28;20029;-73
2022/07/03 07:36:25;;;;;;;13.07;5.75;;;;;;;33.49;37.54;100087.66;5058924;28;20033;-73
2022/07/03 07:38:50;;;;;;;8.95;5.70;;;;;;;33.57;37.59;100088.88;5059799;28;20041;-73
2022/07/03 07:41:16;;;;;;;8.60;5.97;;;;;;;33.92;36.89;100090.88;5058948;28;20039;-73
2022/07/03 07:43:41;;;;;;;13.30;6.32;;;;;;;34.23;36.59;100088.25;5058211;28;20035;-73
2022/07/03 07:46:06;;;;;;;10.05;6.10;;;;;;;34.34;35.48;100082.56;5057225;28;20029;-73
2022/07/03 07:48:35;;;;;;;9.90;5.72;;;;;;;34.64;34.73;100075.50;5058456;28;20043;-73
2022/07/03 07:51:01;;;;;;;11.40;5.20;;;;;;;34.37;34.28;100077.25;5057708;28;20048;-73
2022/07/03 07:53:26;;;;;;;9.38;5.10;;;;;;;34.13;33.71;100082.97;5059859;28;20036;-73
2022/07/03 07:55:52;;;;;;;7.10;5.30;;;;;;;33.90;34.16;100082.13;5059993;28;20312;-73
2022/07/03 07:58:17;;;;;;;7.82;5.72;;;;;;;33.89;34.93;100088.75;5057633;28;20024;-73
2022/07/03 08:05:35;;;;;;;9.40;5.90;;;;;;;33.74;35.50;100080.00;5038858;28;20075;-73
2022/07/03 08:06:14;;;;;;;5.85;5.10;;;;;;;34.25;33.01;100072.25;5057908;28;20036;-73
2022/07/03 08:08:40;;;;;;;6.97;5.60;;;;;;;33.98;34.03;100082.53;5057320;28;20033;-73
2022/07/03 08:11:05;;;;;;;6.32;5.18;;;;;;;34.33;33.59;100080.91;5057667;28;20092;-73
2022/07/03 08:13:31;;;;;;;10.18;5.63;;;;;;;34.72;33.46;100085.72;5056510;28;20032;-73
2022/07/03 08:15:56;;;;;;;6.47;4.75;;;;;;;34.60;32.61;100082.75;5059497;28;20041;-73
2022/07/03 08:18:22;;;;;;;7.85;4.80;;;;;;;34.33;33.36;100081.72;5056864;28;20059;-73
2022/07/03 08:20:48;;;;;;;6.30;5.25;;;;;;;34.63;32.16;100085.69;5054129;28;20029;-73
2022/07/03 08:23:14;;;;;;;8.23;4.60;;;;;;;35.08;31.20;100080.94;5056161;28;20031;-73
2022/07/03 08:25:39;;;;;;;5.38;4.88;;;;;;;35.41;30.68;100086.16;5056304;28;20040;-73
2022/07/03 08:28:05;;;;;;;7.72;5.15;;;;;;;35.44;31.89;100082.75;5057832;28;20037;-73
2022/07/03 08:30:31;;;;;;;8.63;5.18;;;;;;;35.28;31.45;100089.75;5042035;28;20048;-73
2022/07/03 08:32:57;;;;;;;7.97;5.40;;;;;;;35.46;31.30;100081.31;5057371;28;20342;-73
2022/07/03 08:35:23;;;;;;;5.18;4.60;;;;;;;35.60;30.24;100080.38;5058620;28;20032;-73
2022/07/03 08:37:49;;;;;;;6.32;5.15;;;;;;;35.90;29.96;100078.66;5059965;28;20068;-73
2022/07/03 08:40:18;;;;;;;5.65;5.07;;;;;;;35.76;30.76;100076.84;5058260;28;20029;-74
2022/07/03 08:42:57;;;;;;;7.40;5.68;;;;;;;35.55;32.18;100081.31;5057904;28;20059;-73
2022/07/03 08:45:24;;;;;;;10.20;5.28;;;;;;;35.57;31.13;100073.56;5058069;28;20052;-73
2022/07/03 08:47:51;;;;;;;6.18;4.75;;;;;;;35.75;31.15;100069.69;5057018;28;20039;-73
2022/07/03 08:50:18;;;;;;;9.25;5.07;;;;;;;35.89;30.33;100080.59;5058705;28;20037;-73
2022/07/03 08:52:45;;;;;;;7.07;5.22;;;;;;;36.11;29.63;100074.13;5060064;28;20040;-73
2022/07/03 08:55:13;;;;;;;5.93;4.47;;;;;;;36.17;29.09;100075.59;5057444;28;20039;-73
2022/07/03 08:57:43;;;;;;;11.90;4.95;;;;;;;36.10;30.07;100072.53;5060509;28;20041;-73
2022/07/03 09:00:11;;;;;;;6.70;5.28;;;;;;;36.15;29.48;100069.59;5059508;28;20045;-73
2022/07/03 09:02:43;;;;;;;4.63;4.18;;;;;;;36.43;30.13;100070.13;5060073;28;20334;-73
2022/07/03 09:05:10;;;;;;;6.20;4.70;;;;;;;36.57;28.35;100072.69;5060903;28;20041;-73
2022/07/03 09:07:37;;;;;;;8.48;3.70;;;;;;;36.39;24.91;100063.59;5059907;28;20041;-73
2022/07/03 09:10:09;;;;;;;4.63;3.40;;;;;;;35.76;26.31;100065.81;5058462;28;20307;-69
2022/07/03 09:12:35;;;;;;;5.25;3.63;;;;;;;35.33;26.06;100067.63;5060802;28;20029;-69
2022/07/03 09:15:03;;;;;;;5.57;3.65;;;;;;;35.16;27.54;100063.66;5059288;28;20033;-68
2022/07/03 09:17:29;;;;;;;10.65;3.88;;;;;;;35.18;27.10;100058.63;5060956;28;20037;-69
2022/07/03 09:19:58;;;;;;;5.43;4.07;;;;;;;34.92;27.14;100054.97;5058744;28;20086;-68
2022/07/03 09:22:26;;;;;;;9.20;4.88;;;;;;;34.49;30.18;100062.94;5059740;28;20094;-69
2022/07/03 09:25:14;;;;;;;14.70;4.97;;;;;;;34.50;29.33;100062.63;5059296;28;20037;-69
2022/07/03 09:27:51;;;;;;;4.72;4.25;;;;;;;34.64;30.05;100062.56;5057759;28;20037;-68
2022/07/03 09:30:17;;;;;;;6.95;3.47;;;;;;;34.15;30.28;100063.44;5057430;28;20032;-69
2022/07/03 09:32:45;;;;;;;5.68;3.95;;;;;;;33.88;29.83;100061.59;5060741;28;20033;-68
2022/07/03 09:35:17;;;;;;;6.47;3.70;;;;;;;33.95;30.07;100053.72;5059661;28;20078;-69
2022/07/03 09:37:56;;;;;;;11.65;4.50;;;;;;;34.13;29.66;100051.94;5059692;28;20037;-69
2022/07/03 09:40:27;;;;;;;22.65;5.00;;;;;;;34.20;30.25;100042.13;5057203;28;20029;-69
2022/07/03 09:43:02;;;;;;;8.05;4.00;;;;;;;34.01;29.88;100048.94;5059561;28;20135;-69
2022/07/03 09:45:48;;;;;;;7.03;3.97;;;;;;;34.09;30.02;100040.75;5057989;28;20113;-69
2022/07/03 09:48:30;;;;;;;6.38;4.05;;;;;;;34.31;30.19;100041.88;5059951;28;20033;-69
2022/07/03 09:51:12;;;;;;;5.68;3.75;;;;;;;34.48;29.57;100042.88;5059575;28;20032;-69
2022/07/03 09:53:47;;;;;;;7.32;4.25;;;;;;;34.39;31.13;100038.44;5060040;28;20095;-69
2022/07/03 09:56:13;;;;;;;6.68;4.20;;;;;;;34.13;30.93;100046.44;5058737;28;20059;-69
2022/07/03 09:58:39;;;;;;;6.97;3.95;;;;;;;33.23;33.66;100034.31;5058700;28;20318;-68
2022/07/03 10:01:20;;;;;;;9.18;4.30;;;;;;;33.30;33.50;100041.09;5059013;28;20234;-69
2022/07/03 10:03:48;;;;;;;9.23;4.55;;;;;;;33.30;33.81;100032.88;5060436;28;20029;-68
2022/07/03 10:06:14;;;;;;;6.70;4.40;;;;;;;32.52;34.78;100032.88;5060580;28;20043;-68
2022/07/03 10:08:41;;;;;;;10.85;4.20;;;;;;;32.27;34.85;100031.38;5062229;28;20294;-68
2022/07/03 10:11:07;;;;;;;11.75;4.90;;;;;;;32.70;34.36;100032.03;5059190;28;20340;-68
2022/07/03 10:13:34;;;;;;;6.70;4.28;;;;;;;32.46;34.29;100025.88;5059702;28;20037;-68
2022/07/03 10:16:01;;;;;;;11.75;5.18;;;;;;;32.26;35.06;100029.75;5058246;28;20028;-68
2022/07/03 10:18:30;;;;;;;7.85;4.13;;;;;;;32.22;34.10;100014.97;5059640;28;20048;-68
2022/07/03 10:20:58;;;;;;;7.00;4.38;;;;;;;32.24;36.36;100021.00;5059991;28;20037;-68
2022/07/03 10:23:24;;;;;;;5.88;4.18;;;;;;;32.06;35.76;100015.22;5061736;28;20037;-68
2022/07/03 10:25:51;;;;;;;8.93;4.28;;;;;;;32.35;36.31;100014.25;5058591;28;20368;-68
2022/07/03 10:28:18;;;;;;;8.32;4.43;;;;;;;32.34;33.91;100018.13;5058459;28;20380;-68
2022/07/03 10:30:47;;;;;;;4.82;4.03;;;;;;;32.36;36.59;100010.41;5059157;28;20241;-68
2022/07/03 10:33:12;;;;;;;6.95;4.35;;;;;;;32.53;34.09;100009.84;5058070;28;20033;-68
2022/07/03 10:35:44;;;;;;;5.88;4.60;;;;;;;32.85;34.09;100009.81;5058757;28;20025;-69
2022/07/03 10:38:23;;;;;;;6.95;4.70;;;;;;;33.18;33.94;100004.25;5060590;28;20036;-69
2022/07/03 10:46:31;;;;;;;5.60;4.25;;;;;;;32.68;36.67;100010.38;5057705;28;20373;-69
2022/07/03 10:49:12;;;;;;;9.05;4.63;;;;;;;32.48;34.05;100007.19;5058272;28;20393;-68
2022/07/03 10:52:01;;;;;;;5.28;4.50;;;;;;;32.25;34.37;100003.44;5056788;28;20357;-68
2022/07/03 10:54:36;;;;;;;6.85;5.03;;;;;;;32.21;37.33;100005.13;5059960;28;20059;-68
2022/07/03 10:57:02;;;;;;;6.68;4.60;;;;;;;32.44;35.15;100000.69;5058133;28;20075;-68
2022/07/03 10:59:36;;;;;;;7.32;4.78;;;;;;;32.63;34.81;99991.28;5057557;28;20028;-68
2022/07/03 11:02:27;;;;;;;11.00;5.28;;;;;;;32.24;34.50;99997.16;5016244;28;20101;-68
2022/07/03 11:05:01;;;;;;;11.05;5.10;;;;;;;32.41;36.94;99993.06;5014455;28;20028;-68
2022/07/03 11:07:38;;;;;;;6.57;4.78;;;;;;;32.03;34.67;99984.88;5018561;28;20042;-68
2022/07/03 11:10:12;;;;;;;8.13;5.07;;;;;;;32.06;35.38;99979.59;5018483;28;20352;-68
2022/07/03 11:12:59;;;;;;;12.43;5.10;;;;;;;32.16;36.51;99984.09;5020036;28;20263;-69
2022/07/03 11:15:34;;;;;;;8.07;5.43;;;;;;;31.97;35.79;99983.31;5021256;28;20030;-68
2022/07/03 11:18:11;;;;;;;7.13;5.10;;;;;;;31.92;36.27;99980.66;5017763;28;20042;-68
2022/07/03 11:21:07;;;;;;;6.00;4.90;;;;;;;31.96;34.83;99978.94;5017345;28;20270;-68
2022/07/03 11:23:44;;;;;;;9.50;5.32;;;;;;;31.80;35.57;99977.56;5013509;28;20304;-68
2022/07/03 11:26:10;;;;;;;9.88;5.53;;;;;;;32.01;35.84;99960.50;5016076;28;20161;-68
2022/07/03 11:28:35;;;;;;;10.20;5.28;;;;;;;32.21;35.74;99962.09;5016932;28;20214;-68
2022/07/03 11:33:53;;;;;;;11.38;5.40;;;;;;;32.39;34.35;99965.97;5016980;28;20349;-69
2022/07/03 11:36:21;;;;;;;7.53;5.15;;;;;;;32.58;34.50;99957.66;5016582;28;20432;-69
2022/07/03 11:38:57;;;;;;;7.28;5.00;;;;;;;32.22;36.99;99960.97;5017064;28;20032;-68
2022/07/03 11:41:24;;;;;;;6.22;4.78;;;;;;;31.99;35.44;99962.72;5016963;28;20037;-68